Time;durP1;ratioP1;P1;durP2;ratioP2;P2;SDS_P1;SDS_P2;PMS_P1;PMS_P2;Temp;Humidity;BMP_temperature;BMP_pressure;BME280_temperature;BME280_humidity;BME280_pressure;Samples;Min_cycle;Max_cycle;Signal;HPM_P1;HPM_P2
2023/05/01 00:01:05;;;;;;;5.97;5.30;;;;;;;8.01;73.38;98846.84;5095548;28;20032;-62
2023/05/01 00:03:31;;;;;;;8.32;5.75;;;;;;;8.16;73.16;98874.03;5095800;28;20024;-61
2023/05/01 00:06:02;;;;;;;6.78;5.80;;;;;;;8.20;73.03;98875.44;5095175;28;20027;-61
2023/05/01 00:08:27;;;;;;;7.07;6.15;;;;;;;8.16;72.63;98882.03;5095060;28;20094;-62
2023/05/01 00:10:53;;;;;;;9.52;6.20;;;;;;;8.17;72.71;98891.72;5077260;28;20063;-62
2023/05/01 00:13:20;;;;;;;7.38;6.30;;;;;;;7.99;72.73;98859.47;5095072;28;20028;-61
2023/05/01 00:15:48;;;;;;;6.68;5.97;;;;;;;8.21;72.71;98889.63;5094853;28;20127;-61
2023/05/01 00:18:13;;;;;;;7.38;6.22;;;;;;;8.19;72.50;98871.91;5094752;28;20047;-61
2023/05/01 00:20:39;;;;;;;7.50;6.18;;;;;;;8.23;72.24;98877.84;5095108;28;20040;-60
2023/05/01 00:23:05;;;;;;;8.38;6.78;;;;;;;8.15;72.06;98878.50;5095046;28;20028;-61
2023/05/01 00:25:31;;;;;;;7.63;6.60;;;;;;;8.26;72.28;98893.56;5094572;28;20061;-62
2023/05/01 00:27:58;;;;;;;8.48;6.72;;;;;;;8.26;72.28;98903.41;5095050;28;20139;-62
2023/05/01 00:30:24;;;;;;;7.32;6.53;;;;;;;8.25;72.17;98907.06;5094679;28;20032;-62
2023/05/01 00:32:50;;;;;;;7.97;6.35;;;;;;;8.21;72.02;98898.47;5094391;28;20103;-61
2023/05/01 00:35:16;;;;;;;8.18;6.85;;;;;;;8.23;72.36;98893.00;5094661;28;20028;-61
2023/05/01 00:37:42;;;;;;;7.95;6.53;;;;;;;8.29;72.24;98897.81;5094850;28;20067;-62
2023/05/01 00:40:08;;;;;;;8.23;5.43;;;;;;;8.33;71.99;98888.56;5094325;28;20082;-61
2023/05/01 00:42:35;;;;;;;6.63;5.45;;;;;;;8.21;71.37;98853.13;5076995;28;20051;-61
2023/05/01 00:45:00;;;;;;;5.80;5.03;;;;;;;8.21;71.39;98861.13;5076853;28;20354;-62
2023/05/01 00:47:26;;;;;;;5.60;5.00;;;;;;;8.24;71.54;98868.03;5094645;28;20020;-61
2023/05/01 00:49:51;;;;;;;5.60;4.70;;;;;;;8.39;71.07;98871.19;5094503;28;20548;-62
2023/05/01 00:52:17;;;;;;;5.90;5.22;;;;;;;8.09;71.06;98814.22;5076511;28;20069;-61
2023/05/01 00:54:50;;;;;;;6.38;5.15;;;;;;;8.41;70.75;98870.06;5076773;28;20032;-61
2023/05/01 00:57:19;;;;;;;7.65;5.10;;;;;;;8.39;70.99;98871.19;5094445;28;20043;-61
2023/05/01 00:59:45;;;;;;;6.50;4.95;;;;;;;8.30;70.60;98848.81;5093983;28;20028;-61
2023/05/01 01:02:11;;;;;;;6.03;4.82;;;;;;;8.31;70.80;98858.50;5093835;28;20020;-61
2023/05/01 01:04:39;;;;;;;3.90;3.60;;;;;;;8.21;71.07;98871.78;5094533;28;20020;-61
2023/05/01 01:07:27;;;;;;;5.80;4.43;;;;;;;8.22;70.98;98884.16;5094562;28;20119;-61
2023/05/01 01:10:44;;;;;;;4.85;4.20;;;;;;;8.29;71.33;98887.97;5093910;28;20028;-63
2023/05/01 01:13:31;;;;;;;5.07;3.75;;;;;;;8.41;70.98;98906.56;5060044;28;20032;-62
2023/05/01 01:16:20;;;;;;;5.88;4.75;;;;;;;8.43;71.47;98921.44;5076450;28;20024;-62
2023/05/01 01:18:45;;;;;;;4.35;3.35;;;;;;;8.40;70.59;98921.72;5093953;28;20028;-61
2023/05/01 01:21:24;;;;;;;3.72;3.40;;;;;;;8.22;70.53;98884.16;5093765;28;20141;-62
2023/05/01 01:24:11;;;;;;;4.35;3.30;;;;;;;8.42;70.43;98914.41;5094047;28;20081;-62
2023/05/01 01:26:59;;;;;;;5.63;3.90;;;;;;;8.53;70.58;98904.69;5094211;28;20039;-62
2023/05/01 01:29:33;;;;;;;3.83;3.10;;;;;;;8.52;70.53;98892.34;5093365;28;20040;-60
2023/05/01 01:32:33;;;;;;;4.43;3.90;;;;;;;8.57;70.43;98880.28;5093372;28;20038;-62
2023/05/01 01:35:05;;;;;;;3.92;3.53;;;;;;;8.52;69.78;98865.66;5093669;28;20389;-61
2023/05/01 01:37:41;;;;;;;3.38;3.08;;;;;;;8.50;70.05;98852.44;5075463;28;20113;-61
2023/05/01 01:40:15;;;;;;;4.70;3.47;;;;;;;8.45;69.88;98863.50;5093347;28;20050;-61
2023/05/01 01:43:01;;;;;;;4.50;3.20;;;;;;;8.51;70.22;98851.47;5093334;28;20097;-61
2023/05/01 01:45:33;;;;;;;;;;;;;;;8.72;69.73;98838.06;5093538;28;20043;-62
2023/05/01 01:48:01;;;;;;;3.50;3.20;;;;;;;8.46;69.98;98832.31;5092703;28;19912;-61
2023/05/01 01:50:28;;;;;;;3.50;3.20;;;;;;;8.41;70.37;98846.06;5092975;28;20028;-62
2023/05/01 01:52:55;;;;;;;4.10;3.28;;;;;;;8.28;70.45;98826.78;5093318;28;20051;-61
2023/05/01 01:55:26;;;;;;;3.58;3.28;;;;;;;8.38;70.11;98849.00;5092870;28;20367;-61
2023/05/01 01:57:52;;;;;;;4.47;3.55;;;;;;;8.46;70.40;98849.19;5093522;28;20042;-63
2023/05/01 02:00:19;;;;;;;4.45;3.55;;;;;;;8.49;70.22;98845.38;5093168;28;20027;-61
2023/05/01 02:02:46;;;;;;;4.25;3.90;;;;;;;8.51;70.32;98842.63;5093097;28;20062;-61
2023/05/01 02:05:15;;;;;;;4.97;4.03;;;;;;;8.50;70.44;98840.94;5093020;28;20022;-61
2023/05/01 02:07:42;;;;;;;4.00;3.55;;;;;;;8.53;70.49;98846.00;5093339;28;20350;-62
2023/05/01 02:10:10;;;;;;;5.95;3.55;;;;;;;8.56;70.37;98848.41;5075212;28;20024;-61
2023/05/01 02:12:36;;;;;;;3.60;2.90;;;;;;;8.62;69.95;98850.50;5092701;28;20030;-61
2023/05/01 02:15:05;;;;;;;3.70;2.60;;;;;;;8.58;69.76;98833.09;5093060;28;20055;-61
2023/05/01 02:17:32;;;;;;;3.33;2.72;;;;;;;8.60;69.64;98844.47;5092802;28;20145;-61
2023/05/01 02:19:58;;;;;;;3.80;3.05;;;;;;;8.60;69.64;98828.47;5092502;28;20036;-62
2023/05/01 02:22:25;;;;;;;3.28;2.97;;;;;;;8.61;69.74;98832.81;5092679;28;20473;-61
2023/05/01 02:24:53;;;;;;;3.15;2.83;;;;;;;8.66;69.68;98835.91;5092895;28;20442;-62
2023/05/01 02:27:37;;;;;;;4.82;3.10;;;;;;;8.72;69.32;98819.38;5092690;28;20457;-62
2023/05/01 02:30:04;;;;;;;3.70;3.25;;;;;;;8.67;69.29;98808.25;5075392;28;20028;-61
2023/05/01 02:32:30;;;;;;;4.45;3.38;;;;;;;8.51;69.09;98795.44;5092981;28;20035;-62
2023/05/01 02:34:56;;;;;;;4.72;3.05;;;;;;;8.67;69.56;98842.94;5092573;28;20335;-62
2023/05/01 02:37:22;;;;;;;5.78;3.58;;;;;;;8.73;69.71;98863.78;5092471;28;20036;-62
2023/05/01 02:39:48;;;;;;;3.65;3.33;;;;;;;8.75;69.35;98871.63;5092580;28;20028;-63
2023/05/01 02:42:16;;;;;;;4.22;3.72;;;;;;;8.71;69.36;98862.22;5093077;28;20055;-61
2023/05/01 02:44:49;;;;;;;3.75;3.42;;;;;;;8.97;69.37;98894.59;5092677;28;20031;-62
2023/05/01 02:47:18;;;;;;;3.53;3.22;;;;;;;8.98;68.65;98903.44;5092592;28;20060;-60
2023/05/01 02:49:46;;;;;;;4.28;3.25;;;;;;;8.97;68.62;98912.44;5093120;28;20036;-62
2023/05/01 02:52:14;;;;;;;3.40;3.08;;;;;;;8.99;69.13;98916.66;5092793;28;20032;-61
2023/05/01 02:54:42;;;;;;;4.03;3.25;;;;;;;8.84;69.23;98888.66;5092179;28;20035;-61
2023/05/01 02:57:09;;;;;;;3.25;2.95;;;;;;;9.08;69.25;98919.47;5092196;28;20051;-62
2023/05/01 02:59:35;;;;;;;3.85;3.13;;;;;;;9.10;68.99;98913.03;5094413;28;20436;-61
2023/05/01 03:02:00;;;;;;;4.57;3.38;;;;;;;9.16;68.87;98914.28;5096570;28;20111;-62
2023/05/01 03:04:26;;;;;;;3.95;3.22;;;;;;;9.16;68.72;98895.59;5096219;28;20118;-61
2023/05/01 03:06:53;;;;;;;3.17;2.88;;;;;;;9.24;68.71;98900.25;5096356;28;20102;-62
2023/05/01 03:09:19;;;;;;;3.60;3.30;;;;;;;9.28;68.66;98893.66;5096261;28;20093;-61
2023/05/01 03:11:45;;;;;;;3.88;3.25;;;;;;;9.36;68.10;98895.63;5096872;28;20027;-62
2023/05/01 03:14:11;;;;;;;4.90;3.30;;;;;;;9.41;68.26;98880.06;5095978;28;20315;-61
2023/05/01 03:16:36;;;;;;;3.42;3.10;;;;;;;9.45;67.73;98878.78;5095813;28;20024;-62
2023/05/01 03:19:02;;;;;;;3.15;2.95;;;;;;;9.52;67.83;98874.56;5096230;28;20472;-63
2023/05/01 03:21:28;;;;;;;3.78;2.92;;;;;;;9.54;67.20;98869.91;5078206;28;20139;-62
2023/05/01 03:23:54;;;;;;;3.63;3.25;;;;;;;9.60;67.00;98884.56;5095692;28;20089;-62
2023/05/01 03:26:19;;;;;;;3.80;3.35;;;;;;;9.58;67.48;98855.28;5095768;28;20036;-61
2023/05/01 03:28:45;;;;;;;4.00;3.50;;;;;;;9.86;66.96;98876.78;5096306;28;20024;-62
2023/05/01 03:31:11;;;;;;;3.17;2.88;;;;;;;9.95;65.84;98876.94;5078237;28;20025;-61
2023/05/01 03:33:36;;;;;;;3.30;3.00;;;;;;;9.96;65.89;98886.63;5095801;28;20043;-61
2023/05/01 03:36:04;;;;;;;3.55;3.25;;;;;;;10.00;65.86;98904.06;5095530;28;20035;-61
2023/05/01 03:38:32;;;;;;;3.22;2.90;;;;;;;10.07;66.10;98912.38;5095416;28;20471;-61
2023/05/01 03:40:58;;;;;;;6.60;3.15;;;;;;;10.10;65.41;98909.41;5095134;28;20048;-61
2023/05/01 03:43:24;;;;;;;2.83;2.55;;;;;;;10.12;65.57;98908.25;5095695;28;20051;-61
2023/05/01 03:45:51;;;;;;;4.28;2.45;;;;;;;10.16;64.89;98904.34;5095230;28;20363;-60
2023/05/01 03:48:17;;;;;;;2.85;2.60;;;;;;;10.20;65.22;98905.72;5095850;28;20026;-61
2023/05/01 03:50:43;;;;;;;4.25;3.17;;;;;;;10.22;65.30;98902.06;5095499;28;20036;-62
2023/05/01 03:53:09;;;;;;;2.97;2.70;;;;;;;10.29;64.94;98908.50;5095267;28;20176;-62
2023/05/01 03:55:34;;;;;;;3.80;3.00;;;;;;;10.31;64.80;98907.41;5095434;28;20036;-61
2023/05/01 03:58:00;;;;;;;3.72;3.30;;;;;;;10.38;64.79;98913.00;5095169;28;20340;-60
2023/05/01 04:00:25;;;;;;;3.17;2.80;;;;;;;10.44;64.22;98917.81;5095065;28;20036;-61
2023/05/01 04:02:51;;;;;;;3.35;2.88;;;;;;;10.49;64.14;98912.03;5095320;28;20485;-61
2023/05/01 04:05:17;;;;;;;3.05;2.65;;;;;;;10.54;63.83;98904.41;5095156;28;20092;-61
2023/05/01 04:07:43;;;;;;;3.28;2.92;;;;;;;10.58;63.60;98892.41;5095171;28;20454;-62
2023/05/01 04:10:09;;;;;;;4.53;3.05;;;;;;;10.75;63.26;98897.97;5094938;28;20035;-61
2023/05/01 04:12:35;;;;;;;3.70;3.05;;;;;;;10.91;62.99;98892.81;5094947;28;20028;-63
2023/05/01 04:15:00;;;;;;;3.35;2.80;;;;;;;10.80;62.32;98854.69;5094625;28;20032;-62
2023/05/01 04:17:27;;;;;;;3.65;2.80;;;;;;;11.18;61.92;98903.66;5077411;28;20039;-61
2023/05/01 04:19:53;;;;;;;3.00;2.70;;;;;;;11.15;61.39;98910.16;5094878;28;20503;-61
2023/05/01 04:22:19;;;;;;;2.75;2.55;;;;;;;11.13;61.80;98912.13;5095015;28;20096;-61
2023/05/01 04:24:44;;;;;;;2.95;2.72;;;;;;;11.15;61.76;98907.47;5094719;28;20509;-61
2023/05/01 04:27:10;;;;;;;3.45;3.08;;;;;;;11.18;61.77;98915.22;5095133;28;20026;-62
2023/05/01 04:29:35;;;;;;;3.00;2.70;;;;;;;11.15;61.78;98909.31;5094641;28;20400;-60
2023/05/01 04:32:01;;;;;;;3.17;2.88;;;;;;;11.04;61.69;98918.41;5094588;28;20107;-61
2023/05/01 04:34:28;;;;;;;3.72;2.90;;;;;;;10.94;61.92;98913.09;5094817;28;20024;-62
2023/05/01 04:36:56;;;;;;;3.15;2.90;;;;;;;10.83;61.60;98927.53;5094938;28;20070;-61
2023/05/01 04:39:22;;;;;;;3.17;2.88;;;;;;;10.63;62.03;98908.03;5094515;28;20032;-61
2023/05/01 04:41:48;;;;;;;5.35;3.13;;;;;;;10.71;62.56;98918.84;5094638;28;20075;-61
2023/05/01 04:44:14;;;;;;;3.53;3.22;;;;;;;10.53;62.73;98889.34;5094662;28;20048;-62
2023/05/01 04:46:40;;;;;;;4.97;3.08;;;;;;;10.71;62.65;98934.03;5094731;28;20093;-63
2023/05/01 04:49:06;;;;;;;3.95;3.17;;;;;;;10.44;62.53;98912.47;5094636;28;20036;-61
2023/05/01 04:51:32;;;;;;;5.13;3.50;;;;;;;10.56;63.06;98941.72;5094321;28;20024;-63
2023/05/01 04:53:57;;;;;;;3.75;3.45;;;;;;;10.58;62.78;98939.72;5094461;28;20077;-61
2023/05/01 04:56:24;;;;;;;4.07;3.42;;;;;;;10.49;62.58;98936.13;5094454;28;20020;-60
2023/05/01 04:58:49;;;;;;;3.45;3.15;;;;;;;10.45;63.61;98940.91;5094429;28;20484;-62
2023/05/01 05:01:15;;;;;;;3.92;3.55;;;;;;;10.51;63.63;98943.97;5093943;28;20040;-62
2023/05/01 05:03:41;;;;;;;4.03;3.35;;;;;;;10.56;63.90;98939.88;5094039;28;20502;-62
2023/05/01 05:06:07;;;;;;;4.93;3.92;;;;;;;10.64;63.47;98939.16;5094225;28;20439;-62
2023/05/01 05:08:33;;;;;;;5.28;4.22;;;;;;;10.68;63.87;98932.53;5093952;28;20035;-62
2023/05/01 05:10:59;;;;;;;5.65;4.47;;;;;;;10.77;63.63;98942.34;5093815;28;20311;-62
2023/05/01 05:13:26;;;;;;;5.60;4.05;;;;;;;10.85;63.55;98935.41;5093868;28;20039;-60
2023/05/01 05:15:51;;;;;;;6.25;4.47;;;;;;;10.90;63.25;98942.00;5094573;28;20056;-62
2023/05/01 05:18:17;;;;;;;6.18;4.65;;;;;;;10.95;63.15;98940.72;5093737;28;20072;-62
2023/05/01 05:20:43;;;;;;;8.10;4.72;;;;;;;10.79;62.93;98903.88;5093756;28;20035;-63
2023/05/01 05:23:09;;;;;;;6.20;4.55;;;;;;;10.96;62.82;98931.69;5092900;28;20441;-61
2023/05/01 05:25:34;;;;;;;8.95;5.07;;;;;;;10.99;62.95;98929.56;5093726;28;20036;-61
2023/05/01 05:28:00;;;;;;;8.60;4.93;;;;;;;10.99;63.02;98932.25;5093431;28;20488;-60
2023/05/01 05:30:26;;;;;;;5.28;4.30;;;;;;;10.87;62.69;98912.84;5093365;28;20035;-61
2023/05/01 05:32:52;;;;;;;5.05;4.57;;;;;;;11.12;62.46;98952.50;5093502;28;20067;-61
2023/05/01 05:35:17;;;;;;;7.57;4.60;;;;;;;11.11;62.18;98937.41;5075343;28;20107;-61
2023/05/01 05:37:43;;;;;;;6.97;4.65;;;;;;;11.16;62.06;98932.44;5093340;28;20226;-62
2023/05/01 05:40:09;;;;;;;7.32;4.60;;;;;;;11.16;62.18;98927.09;5092870;28;20038;-62
2023/05/01 05:42:35;;;;;;;6.82;4.50;;;;;;;11.21;62.00;98935.50;5093097;28;20055;-61
2023/05/01 05:45:00;;;;;;;6.00;4.50;;;;;;;11.28;61.51;98936.59;5093273;28;20377;-62
2023/05/01 05:47:27;;;;;;;7.70;4.43;;;;;;;11.42;61.52;98954.00;5093136;28;20056;-61
2023/05/01 05:49:54;;;;;;;6.65;4.63;;;;;;;11.53;61.72;98942.22;5093705;28;20395;-61
2023/05/01 05:52:20;;;;;;;7.75;5.05;;;;;;;11.60;61.18;98954.03;5093378;28;20032;-62
2023/05/01 05:54:46;;;;;;;5.80;5.20;;;;;;;11.50;60.91;98934.47;5093104;28;20050;-61
2023/05/01 05:57:11;;;;;;;5.45;4.68;;;;;;;11.66;60.92;98957.09;5093120;28;20028;-63
2023/05/01 05:59:37;;;;;;;6.03;5.05;;;;;;;11.69;60.64;98946.88;5093160;28;20024;-61
2023/05/01 06:02:02;;;;;;;10.40;5.18;;;;;;;11.80;60.89;98967.28;5092904;28;20039;-62
2023/05/01 06:04:28;;;;;;;7.32;5.00;;;;;;;11.81;60.85;98958.22;5093032;28;20054;-62
2023/05/01 06:06:53;;;;;;;8.43;5.35;;;;;;;11.92;60.37;98966.06;5093191;28;20071;-61
2023/05/01 06:09:19;;;;;;;5.80;5.00;;;;;;;11.96;59.84;98958.56;5092692;28;20067;-62
2023/05/01 06:11:45;;;;;;;5.70;5.15;;;;;;;12.09;59.16;98968.91;5092637;28;20131;-61
2023/05/01 06:14:11;;;;;;;5.60;5.03;;;;;;;12.15;59.42;98965.63;5093161;28;20090;-62
2023/05/01 06:16:37;;;;;;;5.70;4.47;;;;;;;12.18;59.25;98969.84;5092919;28;20024;-62
2023/05/01 06:19:02;;;;;;;5.97;4.88;;;;;;;12.19;58.98;98966.16;5092643;28;20371;-62
2023/05/01 06:21:28;;;;;;;8.15;4.63;;;;;;;12.27;58.88;98973.41;5075124;28;20097;-61
2023/05/01 06:23:53;;;;;;;5.53;4.70;;;;;;;12.23;59.01;98980.94;5093185;28;20107;-62
2023/05/01 06:26:20;;;;;;;8.43;4.88;;;;;;;12.24;59.32;98993.34;5074624;28;20044;-62
2023/05/01 06:28:45;;;;;;;8.65;5.45;;;;;;;12.26;59.00;98993.19;5092483;28;20035;-62
2023/05/01 06:31:11;;;;;;;9.25;4.65;;;;;;;12.34;58.83;98990.59;5093032;28;20033;-61
2023/05/01 06:33:37;;;;;;;8.75;4.97;;;;;;;12.47;58.50;98988.31;5092604;28;20124;-62
2023/05/01 06:36:02;;;;;;;7.15;5.25;;;;;;;12.61;57.98;98980.72;5092577;28;20443;-64
2023/05/01 06:38:28;;;;;;;10.20;4.60;;;;;;;12.77;57.13;98970.03;5092424;28;20362;-62
2023/05/01 06:40:54;;;;;;;9.10;4.65;;;;;;;12.98;56.60;98982.25;5092819;28;20406;-61
2023/05/01 06:43:19;;;;;;;5.13;4.47;;;;;;;13.14;56.54;98992.25;5092776;28;20135;-62
2023/05/01 06:45:45;;;;;;;6.68;4.70;;;;;;;13.28;56.14;98989.94;5092498;28;20040;-61
2023/05/01 06:48:10;;;;;;;7.57;4.70;;;;;;;13.42;55.38;98996.53;5092406;28;20028;-63
2023/05/01 06:50:36;;;;;;;8.13;4.78;;;;;;;13.56;54.92;98997.78;5092632;28;20438;-63
2023/05/01 06:53:02;;;;;;;7.63;5.18;;;;;;;13.70;54.48;99007.94;5092542;28;20031;-62
2023/05/01 06:55:32;;;;;;;8.07;4.65;;;;;;;13.73;54.56;99006.75;5092648;28;20028;-62
2023/05/01 06:57:57;;;;;;;8.32;4.80;;;;;;;13.71;54.22;98992.63;5074841;28;20206;-62
2023/05/01 07:00:23;;;;;;;8.65;4.80;;;;;;;13.79;53.62;99006.09;5092469;28;20127;-62
2023/05/01 07:02:48;;;;;;;9.45;5.28;;;;;;;13.74;53.73;99016.50;5092713;28;20032;-64
2023/05/01 07:05:14;;;;;;;7.22;5.38;;;;;;;13.76;53.17;99020.72;5092354;28;20428;-61
2023/05/01 07:07:39;;;;;;;8.48;4.90;;;;;;;13.74;53.45;99033.50;5092323;28;20450;-62
2023/05/01 07:10:05;;;;;;;6.88;4.45;;;;;;;13.82;52.77;99029.97;5092309;28;20096;-63
2023/05/01 07:12:31;;;;;;;5.57;4.88;;;;;;;13.91;52.35;99028.97;5092469;28;20396;-63
2023/05/01 07:14:56;;;;;;;5.72;4.68;;;;;;;14.15;51.38;99030.03;5092372;28;20028;-62
2023/05/01 07:17:22;;;;;;;6.40;4.45;;;;;;;14.24;50.98;99030.88;5091989;28;20024;-62
2023/05/01 07:19:49;;;;;;;7.32;4.68;;;;;;;14.43;50.78;99035.06;5092192;28;20431;-62
2023/05/01 07:22:14;;;;;;;6.70;3.92;;;;;;;14.70;49.69;99041.13;5092215;28;20413;-62
2023/05/01 07:24:40;;;;;;;7.45;4.80;;;;;;;14.79;49.44;99017.75;5091777;28;20088;-62
2023/05/01 07:27:06;;;;;;;7.07;4.40;;;;;;;15.14;48.32;99039.91;5091888;28;20481;-63
2023/05/01 07:29:32;;;;;;;5.20;4.30;;;;;;;15.20;48.11;99024.91;5091842;28;20047;-61
2023/05/01 07:31:57;;;;;;;8.02;4.80;;;;;;;15.46;47.82;99056.97;5092022;28;20138;-62
2023/05/01 07:34:23;;;;;;;8.00;4.25;;;;;;;15.48;47.58;99027.16;5091997;28;20024;-62
2023/05/01 07:36:49;;;;;;;4.88;4.38;;;;;;;15.83;46.24;99046.53;5073909;28;20086;-63
2023/05/01 07:39:16;;;;;;;7.55;4.00;;;;;;;16.05;45.35;99017.06;5091826;28;20500;-62
2023/05/01 07:41:42;;;;;;;6.53;4.25;;;;;;;16.55;44.95;99043.69;5091807;28;20139;-62
2023/05/01 07:44:08;;;;;;;7.45;3.92;;;;;;;16.97;43.74;99050.41;5074167;28;20373;-62
2023/05/01 07:46:35;;;;;;;6.63;4.38;;;;;;;17.28;43.43;99051.31;5077146;28;20083;-62
2023/05/01 07:49:00;;;;;;;8.23;4.72;;;;;;;17.87;42.27;99058.50;5095692;28;20070;-61
2023/05/01 07:51:26;;;;;;;5.40;4.20;;;;;;;18.35;40.72;99059.88;5095438;28;20112;-61
2023/05/01 07:53:51;;;;;;;6.30;4.07;;;;;;;18.63;39.14;99059.09;5095413;28;20043;-63
2023/05/01 07:56:17;;;;;;;5.13;4.32;;;;;;;19.06;38.07;99055.47;5095166;28;20470;-62
2023/05/01 07:58:42;;;;;;;7.65;4.30;;;;;;;19.48;37.47;99064.50;5094892;28;20533;-62
2023/05/01 08:01:08;;;;;;;5.88;4.15;;;;;;;19.58;36.80;99068.69;5095293;28;20028;-62
2023/05/01 08:03:34;;;;;;;7.00;4.50;;;;;;;19.46;36.87;99069.28;5095053;28;20031;-62
2023/05/01 08:05:59;;;;;;;7.15;4.57;;;;;;;19.14;37.07;99059.91;5095312;28;20056;-62
2023/05/01 08:08:25;;;;;;;6.18;3.78;;;;;;;18.83;37.49;99042.16;5095228;28;20028;-61
2023/05/01 08:10:51;;;;;;;4.40;3.28;;;;;;;18.41;37.35;99075.34;5095124;28;20089;-61
2023/05/01 08:13:17;;;;;;;5.40;3.10;;;;;;;17.81;37.73;99080.91;5076974;28;20035;-62
2023/05/01 08:15:44;;;;;;;8.05;3.20;;;;;;;17.47;38.74;99087.78;5094842;28;20107;-63
2023/05/01 08:18:10;;;;;;;6.03;3.80;;;;;;;17.26;39.35;99089.34;5095121;28;20054;-61
2023/05/01 08:20:36;;;;;;;4.72;3.40;;;;;;;16.92;39.48;99087.97;5094669;28;20456;-62
2023/05/01 08:23:01;;;;;;;7.13;3.72;;;;;;;16.34;40.53;99067.66;5094887;28;20126;-63
2023/05/01 08:25:28;;;;;;;5.40;3.53;;;;;;;15.92;40.94;99072.50;5094795;28;20028;-63
2023/05/01 08:27:53;;;;;;;5.40;3.58;;;;;;;15.85;42.05;99109.25;5077222;28;20883;-61
2023/05/01 08:30:19;;;;;;;7.65;4.35;;;;;;;15.78;42.90;99119.91;5094510;28;20061;-63
2023/05/01 08:32:44;;;;;;;8.90;4.07;;;;;;;15.73;43.33;99116.09;5094708;28;20042;-62
2023/05/01 08:35:10;;;;;;;10.25;4.28;;;;;;;15.61;43.62;99118.31;5094887;28;20505;-62
2023/05/01 08:37:36;;;;;;;11.38;4.55;;;;;;;15.55;43.48;99124.38;5094926;28;20077;-63
2023/05/01 08:40:07;;;;;;;5.57;3.83;;;;;;;15.38;44.12;99129.84;5094785;28;20028;-62
2023/05/01 08:42:34;;;;;;;5.18;3.50;;;;;;;15.13;44.54;99120.94;5094505;28;20048;-71
2023/05/01 08:45:02;;;;;;;6.28;3.92;;;;;;;15.17;44.39;99139.31;5095005;28;20104;-61
2023/05/01 08:47:30;;;;;;;5.68;3.97;;;;;;;14.91;43.99;99112.56;5094536;28;20028;-61
2023/05/01 08:49:58;;;;;;;6.97;3.53;;;;;;;14.82;44.55;99119.78;5094152;28;20335;-62
2023/05/01 08:52:26;;;;;;;7.75;4.43;;;;;;;15.07;44.60;99152.13;5094099;28;20055;-62
2023/05/01 08:54:55;;;;;;;4.45;4.03;;;;;;;15.05;44.60;99155.00;5094386;28;20035;-61
2023/05/01 08:57:21;;;;;;;8.00;3.42;;;;;;;14.74;44.52;99130.59;5093022;28;20028;-61
2023/05/01 08:59:49;;;;;;;4.32;3.70;;;;;;;14.64;45.43;99160.34;5094002;28;20340;-62
2023/05/01 09:02:15;;;;;;;6.63;3.53;;;;;;;14.38;45.83;99155.94;5093791;28;20047;-61
2023/05/01 09:04:41;;;;;;;7.72;3.47;;;;;;;14.24;45.66;99146.66;5094108;28;20024;-61
2023/05/01 09:07:08;;;;;;;8.43;3.53;;;;;;;14.28;45.22;99147.16;5094028;28;20028;-61
2023/05/01 09:09:35;;;;;;;8.55;5.32;;;;;;;14.43;45.01;99142.81;5093576;28;20036;-62
2023/05/01 09:12:23;;;;;;;6.15;3.58;;;;;;;14.98;44.59;99183.66;5093833;28;20346;-62
2023/05/01 09:14:50;;;;;;;5.60;3.10;;;;;;;15.10;43.67;99170.69;5093982;28;20070;-62
2023/05/01 09:17:16;;;;;;;8.98;3.35;;;;;;;15.11;43.36;99171.50;5093850;28;20475;-62
2023/05/01 09:19:42;;;;;;;4.80;3.08;;;;;;;15.14;43.29;99177.41;5093797;28;20112;-62
2023/05/01 09:22:08;;;;;;;4.15;3.28;;;;;;;15.16;43.39;99177.22;5093646;28;20103;-63
2023/05/01 09:24:34;;;;;;;7.38;3.78;;;;;;;15.18;43.33;99183.28;5076003;28;20418;-61
2023/05/01 09:27:00;;;;;;;5.07;3.20;;;;;;;15.29;43.43;99185.66;5075679;28;20035;-63
2023/05/01 09:29:52;;;;;;;6.05;3.20;;;;;;;15.47;43.06;99185.44;5075879;28;20032;-63
2023/05/01 09:32:20;;;;;;;5.88;3.50;;;;;;;15.19;42.66;99185.84;5088574;28;20474;-62
2023/05/01 09:34:48;;;;;;;4.25;3.22;;;;;;;15.04;43.02;99166.81;5093495;28;20304;-62
2023/05/01 09:37:30;;;;;;;3.30;2.95;;;;;;;15.29;43.11;99185.66;5093515;28;20023;-62
2023/05/01 09:40:02;;;;;;;5.75;3.50;;;;;;;15.32;42.79;99196.09;5093232;28;20107;-63
2023/05/01 09:42:34;;;;;;;4.10;3.10;;;;;;;15.15;42.72;99181.78;5093548;28;20048;-63
2023/05/01 09:45:00;;;;;;;4.97;3.50;;;;;;;15.17;42.71;99198.66;5093224;28;20122;-61
2023/05/01 09:47:28;;;;;;;5.68;3.08;;;;;;;15.18;42.81;99199.47;5093249;28;20053;-62
2023/05/01 09:49:55;;;;;;;5.95;2.90;;;;;;;15.22;42.49;99203.53;5093313;28;20384;-63
2023/05/01 09:52:27;;;;;;;8.07;2.72;;;;;;;15.30;41.81;99195.44;5093076;28;20028;-62
2023/05/01 09:55:15;;;;;;;4.88;3.40;;;;;;;15.51;42.54;99194.06;5093365;28;20028;-62
2023/05/01 09:57:42;;;;;;;7.70;2.92;;;;;;;15.44;41.73;99195.75;5093156;28;20020;-62
2023/05/01 10:00:09;;;;;;;4.60;3.10;;;;;;;15.43;41.87;99191.34;5093267;28;20127;-63
2023/05/01 10:02:35;;;;;;;4.20;3.03;;;;;;;15.61;41.90;99197.41;5093780;28;20107;-63
2023/05/01 10:05:02;;;;;;;6.60;3.00;;;;;;;15.82;41.35;99192.47;5093117;28;20080;-63
2023/05/01 10:07:29;;;;;;;5.70;2.85;;;;;;;15.81;41.09;99205.09;5092693;28;20732;-63
2023/05/01 10:09:55;;;;;;;5.78;2.90;;;;;;;15.62;41.40;99201.78;5092955;28;20085;-62
2023/05/01 10:12:24;;;;;;;5.05;2.78;;;;;;;15.56;42.19;99223.22;5093075;28;20028;-62
2023/05/01 10:14:55;;;;;;;4.22;3.60;;;;;;;15.33;42.45;99223.94;5093021;28;20020;-62
2023/05/01 10:17:21;;;;;;;4.63;2.85;;;;;;;14.99;42.99;99225.78;5092688;28;20032;-61
2023/05/01 10:19:48;;;;;;;3.17;2.83;;;;;;;14.60;43.66;99202.09;5092596;28;20028;-62
2023/05/01 10:22:14;;;;;;;5.00;2.70;;;;;;;14.61;43.41;99226.19;5092854;28;20028;-62
2023/05/01 10:24:42;;;;;;;6.43;3.20;;;;;;;14.47;43.98;99243.84;5093080;28;20382;-61
2023/05/01 10:27:09;;;;;;;6.97;3.00;;;;;;;14.26;44.69;99246.94;5092901;28;20032;-62
2023/05/01 10:29:38;;;;;;;6.70;2.97;;;;;;;14.02;45.46;99250.38;5092604;28;20075;-63
2023/05/01 10:32:08;;;;;;;4.40;2.78;;;;;;;13.67;46.28;99260.25;5092755;28;20111;-62
2023/05/01 10:34:37;;;;;;;4.45;2.20;;;;;;;13.47;46.98;99257.75;5074976;28;20084;-63
2023/05/01 10:37:11;;;;;;;3.05;2.30;;;;;;;13.30;47.36;99270.19;5074675;28;20461;-63
2023/05/01 10:39:37;;;;;;;4.50;2.13;;;;;;;12.90;47.93;99242.81;5092735;28;20457;-62
2023/05/01 10:42:13;;;;;;;2.85;1.92;;;;;;;12.88;48.15;99274.38;5092807;28;20060;-62
2023/05/01 10:44:40;;;;;;;3.17;1.73;;;;;;;12.66;48.77;99292.59;5092793;28;20040;-62
2023/05/01 10:47:26;;;;;;;5.93;1.75;;;;;;;12.66;48.93;99302.47;5092404;28;20042;-62
2023/05/01 10:50:07;;;;;;;4.95;1.98;;;;;;;12.48;49.46;99297.94;5092266;28;20084;-62
2023/05/01 10:53:11;;;;;;;4.03;1.63;;;;;;;12.30;49.38;99301.41;5092526;28;20062;-63
2023/05/01 10:55:42;;;;;;;2.95;1.70;;;;;;;12.10;49.62;99319.44;5062741;28;20047;-63
2023/05/01 10:58:08;;;;;;;2.47;1.70;;;;;;;11.62;51.06;99292.53;5092375;28;20047;-61
2023/05/01 11:00:33;;;;;;;4.50;1.98;;;;;;;11.57;51.55;99326.97;5092542;28;20028;-62
2023/05/01 11:03:20;;;;;;;2.67;1.90;;;;;;;11.70;51.34;99339.25;5092647;28;20039;-62
2023/05/01 11:05:58;;;;;;;3.45;1.90;;;;;;;11.64;51.49;99332.59;5092312;28;20429;-63
2023/05/01 11:08:31;;;;;;;2.45;1.40;;;;;;;11.50;51.24;99344.63;5092199;28;20036;-62
2023/05/01 11:10:57;;;;;;;3.83;1.90;;;;;;;11.40;52.10;99349.16;5092504;28;20038;-61
2023/05/01 11:13:54;;;;;;;3.60;1.60;;;;;;;11.42;51.92;99358.72;5092387;28;20355;-62
2023/05/01 11:16:40;;;;;;;2.78;1.75;;;;;;;11.32;51.70;99363.25;5092121;28;20438;-62
2023/05/01 11:19:32;;;;;;;5.50;1.95;;;;;;;11.06;52.60;99361.94;5091923;28;20043;-62
2023/05/01 11:21:59;;;;;;;3.78;1.92;;;;;;;10.92;53.24;99367.69;5095705;28;20080;-62
2023/05/01 11:24:31;;;;;;;9.70;2.38;;;;;;;10.92;53.48;99370.38;5096113;28;20164;-63
2023/05/01 11:26:58;;;;;;;5.97;1.80;;;;;;;10.79;54.14;99380.47;5078085;28;20028;-63
2023/05/01 11:29:30;;;;;;;3.63;1.83;;;;;;;10.77;54.17;99384.13;5095834;28;20108;-63
2023/05/01 11:31:56;;;;;;;3.67;1.95;;;;;;;10.60;54.81;99372.25;5096063;28;20044;-62
2023/05/01 11:34:21;;;;;;;3.03;2.03;;;;;;;10.69;54.73;99393.84;5095865;28;20478;-61
2023/05/01 11:36:48;;;;;;;3.05;1.92;;;;;;;10.62;54.52;99404.25;5095883;28;20031;-62
2023/05/01 11:39:17;;;;;;;6.28;1.80;;;;;;;10.51;55.04;99404.34;5095993;28;20035;-62
2023/05/01 11:41:43;;;;;;;2.15;1.50;;;;;;;10.32;54.68;99404.06;5096068;28;20066;-63